sensor_id;sensor_type;location;lat;lon;timestamp;P1;durP1;ratioP1;P2;durP2;ratioP2
17714;SDS011;8977;50.902;4.314;2023-08-06T00:01:03;3.00;;;1.88;;
17714;SDS011;8977;50.902;4.314;2023-08-06T00:03:30;3.88;;;1.75;;
17714;SDS011;8977;50.902;4.314;2023-08-06T00:05:57;2.63;;;1.85;;
17714;SDS011;8977;50.902;4.314;2023-08-06T00:08:25;3.30;;;1.98;;
17714;SDS011;8977;50.902;4.314;2023-08-06T00:10:52;5.05;;;1.98;;
17714;SDS011;8977;50.902;4.314;2023-08-06T00:13:19;3.25;;;1.80;;
17714;SDS011;8977;50.902;4.314;2023-08-06T00:15:46;5.38;;;1.60;;
17714;SDS011;8977;50.902;4.314;2023-08-06T00:18:13;3.05;;;1.80;;
17714;SDS011;8977;50.902;4.314;2023-08-06T00:20:40;3.78;;;1.80;;
17714;SDS011;8977;50.902;4.314;2023-08-06T00:23:07;3.00;;;1.70;;
17714;SDS011;8977;50.902;4.314;2023-08-06T00:25:36;4.55;;;2.15;;
17714;SDS011;8977;50.902;4.314;2023-08-06T00:28:03;2.95;;;1.98;;
17714;SDS011;8977;50.902;4.314;2023-08-06T00:30:31;3.20;;;2.05;;
17714;SDS011;8977;50.902;4.314;2023-08-06T00:32:57;2.50;;;2.30;;
17714;SDS011;8977;50.902;4.314;2023-08-06T00:35:24;3.80;;;2.33;;
17714;SDS011;8977;50.902;4.314;2023-08-06T00:37:51;3.78;;;2.72;;
17714;SDS011;8977;50.902;4.314;2023-08-06T00:40:20;4.20;;;2.50;;
17714;SDS011;8977;50.902;4.314;2023-08-06T00:42:48;3.20;;;2.75;;
17714;SDS011;8977;50.902;4.314;2023-08-06T00:45:15;7.70;;;3.53;;
17714;SDS011;8977;50.902;4.314;2023-08-06T00:47:42;4.57;;;3.00;;
17714;SDS011;8977;50.902;4.314;2023-08-06T00:50:10;4.85;;;3.00;;
17714;SDS011;8977;50.902;4.314;2023-08-06T00:52:38;3.92;;;3.10;;
17714;SDS011;8977;50.902;4.314;2023-08-06T00:55:05;3.63;;;2.90;;
17714;SDS011;8977;50.902;4.314;2023-08-06T00:57:33;4.43;;;2.92;;
17714;SDS011;8977;50.902;4.314;2023-08-06T01:00:02;4.40;;;2.90;;
17714;SDS011;8977;50.902;4.314;2023-08-06T01:02:30;4.00;;;3.20;;
17714;SDS011;8977;50.902;4.314;2023-08-06T01:04:57;5.07;;;3.58;;
17714;SDS011;8977;50.902;4.314;2023-08-06T01:07:28;5.70;;;3.05;;
17714;SDS011;8977;50.902;4.314;2023-08-06T01:10:10;6.28;;;3.78;;
17714;SDS011;8977;50.902;4.314;2023-08-06T01:12:48;6.78;;;4.03;;
17714;SDS011;8977;50.902;4.314;2023-08-06T01:15:22;4.88;;;3.92;;
17714;SDS011;8977;50.902;4.314;2023-08-06T01:17:54;5.18;;;3.95;;
17714;SDS011;8977;50.902;4.314;2023-08-06T01:20:21;4.63;;;4.13;;
17714;SDS011;8977;50.902;4.314;2023-08-06T01:22:50;4.78;;;3.80;;
17714;SDS011;8977;50.902;4.314;2023-08-06T01:25:16;6.50;;;4.50;;
17714;SDS011;8977;50.902;4.314;2023-08-06T01:27:44;5.95;;;4.40;;
17714;SDS011;8977;50.902;4.314;2023-08-06T01:30:16;6.53;;;4.25;;
17714;SDS011;8977;50.902;4.314;2023-08-06T01:32:50;4.80;;;4.18;;
17714;SDS011;8977;50.902;4.314;2023-08-06T01:35:20;6.55;;;3.90;;
17714;SDS011;8977;50.902;4.314;2023-08-06T01:37:50;6.75;;;4.22;;
17714;SDS011;8977;50.902;4.314;2023-08-06T01:40:17;5.47;;;4.03;;
17714;SDS011;8977;50.902;4.314;2023-08-06T01:42:44;7.78;;;4.53;;
17714;SDS011;8977;50.902;4.314;2023-08-06T01:45:11;4.35;;;3.90;;
17714;SDS011;8977;50.902;4.314;2023-08-06T01:47:38;4.80;;;4.20;;
17714;SDS011;8977;50.902;4.314;2023-08-06T01:50:05;7.15;;;4.10;;
17714;SDS011;8977;50.902;4.314;2023-08-06T01:52:33;8.45;;;4.00;;
17714;SDS011;8977;50.902;4.314;2023-08-06T01:55:01;6.72;;;3.97;;
17714;SDS011;8977;50.902;4.314;2023-08-06T01:57:28;6.15;;;4.38;;
17714;SDS011;8977;50.902;4.314;2023-08-06T01:59:55;4.90;;;3.85;;
17714;SDS011;8977;50.902;4.314;2023-08-06T02:02:22;4.57;;;3.55;;
17714;SDS011;8977;50.902;4.314;2023-08-06T02:04:49;5.18;;;3.45;;
17714;SDS011;8977;50.902;4.314;2023-08-06T02:07:16;6.38;;;3.70;;
17714;SDS011;8977;50.902;4.314;2023-08-06T02:09:43;6.07;;;3.50;;
17714;SDS011;8977;50.902;4.314;2023-08-06T02:12:11;5.40;;;3.15;;
17714;SDS011;8977;50.902;4.314;2023-08-06T02:14:38;4.88;;;3.05;;
17714;SDS011;8977;50.902;4.314;2023-08-06T02:17:05;5.80;;;2.60;;
17714;SDS011;8977;50.902;4.314;2023-08-06T02:19:32;5.93;;;2.30;;
17714;SDS011;8977;50.902;4.314;2023-08-06T02:21:59;5.65;;;2.40;;
17714;SDS011;8977;50.902;4.314;2023-08-06T02:24:27;7.55;;;2.50;;
17714;SDS011;8977;50.902;4.314;2023-08-06T02:26:54;9.55;;;2.45;;
17714;SDS011;8977;50.902;4.314;2023-08-06T02:29:22;6.60;;;2.10;;
17714;SDS011;8977;50.902;4.314;2023-08-06T02:31:49;5.00;;;2.15;;
17714;SDS011;8977;50.902;4.314;2023-08-06T02:34:16;5.60;;;2.00;;
17714;SDS011;8977;50.902;4.314;2023-08-06T02:36:43;4.55;;;2.15;;
17714;SDS011;8977;50.902;4.314;2023-08-06T02:39:10;8.43;;;2.22;;
17714;SDS011;8977;50.902;4.314;2023-08-06T02:41:37;4.80;;;1.85;;
17714;SDS011;8977;50.902;4.314;2023-08-06T02:44:04;6.45;;;2.10;;
17714;SDS011;8977;50.902;4.314;2023-08-06T02:46:32;4.32;;;2.13;;
17714;SDS011;8977;50.902;4.314;2023-08-06T02:48:59;4.85;;;2.30;;
17714;SDS011;8977;50.902;4.314;2023-08-06T02:51:26;4.20;;;2.20;;
17714;SDS011;8977;50.902;4.314;2023-08-06T02:53:53;4.90;;;2.25;;
17714;SDS011;8977;50.902;4.314;2023-08-06T02:56:19;6.75;;;3.05;;
17714;SDS011;8977;50.902;4.314;2023-08-06T02:58:46;6.07;;;2.70;;
17714;SDS011;8977;50.902;4.314;2023-08-06T03:01:13;6.70;;;3.30;;
17714;SDS011;8977;50.902;4.314;2023-08-06T03:03:41;7.57;;;4.15;;
17714;SDS011;8977;50.902;4.314;2023-08-06T03:06:08;10.32;;;5.40;;
17714;SDS011;8977;50.902;4.314;2023-08-06T03:08:35;7.50;;;5.20;;
17714;SDS011;8977;50.902;4.314;2023-08-06T03:11:02;11.80;;;5.88;;
17714;SDS011;8977;50.902;4.314;2023-08-06T03:13:29;8.43;;;6.00;;
17714;SDS011;8977;50.902;4.314;2023-08-06T03:15:58;8.90;;;7.22;;
17714;SDS011;8977;50.902;4.314;2023-08-06T03:18:26;12.63;;;8.25;;
17714;SDS011;8977;50.902;4.314;2023-08-06T03:20:54;9.23;;;7.43;;
17714;SDS011;8977;50.902;4.314;2023-08-06T03:23:22;10.57;;;8.30;;
17714;SDS011;8977;50.902;4.314;2023-08-06T03:25:49;11.32;;;8.60;;
17714;SDS011;8977;50.902;4.314;2023-08-06T03:28:16;9.52;;;8.02;;
17714;SDS011;8977;50.902;4.314;2023-08-06T03:30:42;8.90;;;7.30;;
17714;SDS011;8977;50.902;4.314;2023-08-06T03:33:09;7.78;;;6.35;;
17714;SDS011;8977;50.902;4.314;2023-08-06T03:35:36;6.88;;;5.15;;
17714;SDS011;8977;50.902;4.314;2023-08-06T03:38:05;4.30;;;3.90;;
17714;SDS011;8977;50.902;4.314;2023-08-06T03:40:32;3.40;;;3.10;;
17714;SDS011;8977;50.902;4.314;2023-08-06T03:43:01;3.80;;;2.97;;
17714;SDS011;8977;50.902;4.314;2023-08-06T03:45:28;2.70;;;2.50;;
17714;SDS011;8977;50.902;4.314;2023-08-06T03:47:55;2.53;;;2.33;;
17714;SDS011;8977;50.902;4.314;2023-08-06T03:50:22;2.53;;;2.03;;
17714;SDS011;8977;50.902;4.314;2023-08-06T03:52:49;3.35;;;2.00;;
17714;SDS011;8977;50.902;4.314;2023-08-06T03:55:17;6.32;;;1.20;;
17714;SDS011;8977;50.902;4.314;2023-08-06T03:57:44;3.47;;;1.05;;
17714;SDS011;8977;50.902;4.314;2023-08-06T04:00:11;1.10;;;0.70;;
17714;SDS011;8977;50.902;4.314;2023-08-06T04:02:39;1.83;;;1.02;;
17714;SDS011;8977;50.902;4.314;2023-08-06T04:05:06;1.70;;;1.02;;
17714;SDS011;8977;50.902;4.314;2023-08-06T04:07:33;0.90;;;0.70;;
17714;SDS011;8977;50.902;4.314;2023-08-06T04:10:02;0.88;;;0.70;;
17714;SDS011;8977;50.902;4.314;2023-08-06T04:12:31;1.35;;;0.60;;
17714;SDS011;8977;50.902;4.314;2023-08-06T04:15:01;1.02;;;0.68;;
17714;SDS011;8977;50.902;4.314;2023-08-06T04:17:29;0.90;;;0.80;;
17714;SDS011;8977;50.902;4.314;2023-08-06T04:19:56;1.15;;;0.77;;
17714;SDS011;8977;50.902;4.314;2023-08-06T04:22:24;1.80;;;1.30;;
17714;SDS011;8977;50.902;4.314;2023-08-06T04:24:51;1.83;;;1.00;;
17714;SDS011;8977;50.902;4.314;2023-08-06T04:27:18;1.60;;;1.50;;
17714;SDS011;8977;50.902;4.314;2023-08-06T04:29:47;2.72;;;1.45;;
17714;SDS011;8977;50.902;4.314;2023-08-06T04:32:14;2.70;;;1.38;;
17714;SDS011;8977;50.902;4.314;2023-08-06T04:34:41;2.25;;;1.80;;
17714;SDS011;8977;50.902;4.314;2023-08-06T04:37:08;3.58;;;1.98;;
17714;SDS011;8977;50.902;4.314;2023-08-06T04:39:35;3.00;;;1.77;;
17714;SDS011;8977;50.902;4.314;2023-08-06T04:42:02;4.50;;;2.08;;
17714;SDS011;8977;50.902;4.314;2023-08-06T04:44:30;4.05;;;2.15;;
17714;SDS011;8977;50.902;4.314;2023-08-06T04:46:58;2.58;;;2.00;;
17714;SDS011;8977;50.902;4.314;2023-08-06T04:49:25;3.83;;;2.20;;
17714;SDS011;8977;50.902;4.314;2023-08-06T04:51:52;4.25;;;2.15;;
17714;SDS011;8977;50.902;4.314;2023-08-06T04:54:19;3.15;;;2.10;;
17714;SDS011;8977;50.902;4.314;2023-08-06T04:56:46;3.15;;;2.30;;
17714;SDS011;8977;50.902;4.314;2023-08-06T04:59:13;2.67;;;2.33;;
17714;SDS011;8977;50.902;4.314;2023-08-06T05:01:40;4.85;;;2.42;;
17714;SDS011;8977;50.902;4.314;2023-08-06T05:04:08;4.90;;;2.50;;
17714;SDS011;8977;50.902;4.314;2023-08-06T05:06:35;4.47;;;2.67;;
17714;SDS011;8977;50.902;4.314;2023-08-06T05:09:03;4.22;;;2.55;;
17714;SDS011;8977;50.902;4.314;2023-08-06T05:11:31;5.45;;;2.75;;
17714;SDS011;8977;50.902;4.314;2023-08-06T05:13:58;7.15;;;2.90;;
17714;SDS011;8977;50.902;4.314;2023-08-06T05:16:25;5.03;;;2.67;;
17714;SDS011;8977;50.902;4.314;2023-08-06T05:18:52;4.57;;;2.85;;
17714;SDS011;8977;50.902;4.314;2023-08-06T05:21:20;4.63;;;2.58;;
17714;SDS011;8977;50.902;4.314;2023-08-06T05:23:47;4.47;;;2.55;;
17714;SDS011;8977;50.902;4.314;2023-08-06T05:26:14;5.00;;;2.83;;
17714;SDS011;8977;50.902;4.314;2023-08-06T05:28:43;6.65;;;3.28;;
17714;SDS011;8977;50.902;4.314;2023-08-06T05:31:10;7.10;;;3.17;;
17714;SDS011;8977;50.902;4.314;2023-08-06T05:33:37;5.65;;;3.08;;
17714;SDS011;8977;50.902;4.314;2023-08-06T05:36:04;7.10;;;3.88;;
17714;SDS011;8977;50.902;4.314;2023-08-06T05:38:33;5.63;;;2.55;;
17714;SDS011;8977;50.902;4.314;2023-08-06T05:41:00;5.07;;;2.78;;
17714;SDS011;8977;50.902;4.314;2023-08-06T05:43:27;8.45;;;3.80;;
17714;SDS011;8977;50.902;4.314;2023-08-06T05:45:54;5.77;;;2.77;;
17714;SDS011;8977;50.902;4.314;2023-08-06T05:48:22;5.13;;;2.85;;
17714;SDS011;8977;50.902;4.314;2023-08-06T05:50:50;8.02;;;2.75;;
17714;SDS011;8977;50.902;4.314;2023-08-06T05:53:17;6.05;;;2.70;;
17714;SDS011;8977;50.902;4.314;2023-08-06T05:55:46;7.93;;;2.97;;
17714;SDS011;8977;50.902;4.314;2023-08-06T05:58:13;6.33;;;2.77;;
17714;SDS011;8977;50.902;4.314;2023-08-06T06:00:40;6.65;;;2.88;;
17714;SDS011;8977;50.902;4.314;2023-08-06T06:03:07;5.18;;;2.70;;
17714;SDS011;8977;50.902;4.314;2023-08-06T06:05:34;8.43;;;3.30;;
17714;SDS011;8977;50.902;4.314;2023-08-06T06:08:03;5.82;;;2.60;;
17714;SDS011;8977;50.902;4.314;2023-08-06T06:10:30;6.03;;;2.47;;
17714;SDS011;8977;50.902;4.314;2023-08-06T06:12:58;4.70;;;2.67;;
17714;SDS011;8977;50.902;4.314;2023-08-06T06:15:25;5.65;;;2.80;;
17714;SDS011;8977;50.902;4.314;2023-08-06T06:17:52;6.75;;;3.22;;
17714;SDS011;8977;50.902;4.314;2023-08-06T06:20:19;7.20;;;3.30;;
17714;SDS011;8977;50.902;4.314;2023-08-06T06:22:46;7.20;;;3.00;;
17714;SDS011;8977;50.902;4.314;2023-08-06T06:25:13;5.35;;;3.10;;
17714;SDS011;8977;50.902;4.314;2023-08-06T06:27:40;6.93;;;3.65;;
17714;SDS011;8977;50.902;4.314;2023-08-06T06:30:09;9.03;;;3.83;;
17714;SDS011;8977;50.902;4.314;2023-08-06T06:32:37;11.02;;;3.67;;
17714;SDS011;8977;50.902;4.314;2023-08-06T06:35:05;9.30;;;4.05;;
17714;SDS011;8977;50.902;4.314;2023-08-06T06:37:32;8.88;;;3.47;;
17714;SDS011;8977;50.902;4.314;2023-08-06T06:39:59;7.35;;;3.85;;
17714;SDS011;8977;50.902;4.314;2023-08-06T06:42:26;5.22;;;3.42;;
17714;SDS011;8977;50.902;4.314;2023-08-06T06:44:53;8.98;;;3.63;;
17714;SDS011;8977;50.902;4.314;2023-08-06T06:47:21;6.97;;;2.97;;
17714;SDS011;8977;50.902;4.314;2023-08-06T06:49:48;5.65;;;3.10;;
17714;SDS011;8977;50.902;4.314;2023-08-06T06:52:15;7.50;;;3.22;;
17714;SDS011;8977;50.902;4.314;2023-08-06T06:54:42;5.75;;;3.03;;
17714;SDS011;8977;50.902;4.314;2023-08-06T06:57:09;6.38;;;2.65;;
17714;SDS011;8977;50.902;4.314;2023-08-06T06:59:36;6.72;;;2.70;;
17714;SDS011;8977;50.902;4.314;2023-08-06T07:02:03;7.22;;;3.17;;
17714;SDS011;8977;50.902;4.314;2023-08-06T07:04:33;5.63;;;2.60;;
17714;SDS011;8977;50.902;4.314;2023-08-06T07:07:00;6.80;;;2.78;;
17714;SDS011;8977;50.902;4.314;2023-08-06T07:09:27;8.05;;;3.00;;
17714;SDS011;8977;50.902;4.314;2023-08-06T07:11:54;5.10;;;2.13;;
17714;SDS011;8977;50.902;4.314;2023-08-06T07:14:21;4.85;;;2.03;;
17714;SDS011;8977;50.902;4.314;2023-08-06T07:16:47;5.10;;;1.75;;
17714;SDS011;8977;50.902;4.314;2023-08-06T07:19:14;6.22;;;1.95;;
17714;SDS011;8977;50.902;4.314;2023-08-06T07:21:43;5.70;;;1.60;;
17714;SDS011;8977;50.902;4.314;2023-08-06T07:24:10;5.55;;;1.65;;
17714;SDS011;8977;50.902;4.314;2023-08-06T07:26:37;6.88;;;1.92;;
17714;SDS011;8977;50.902;4.314;2023-08-06T07:29:04;5.25;;;1.50;;
17714;SDS011;8977;50.902;4.314;2023-08-06T07:31:31;6.10;;;1.55;;
17714;SDS011;8977;50.902;4.314;2023-08-06T07:33:58;5.67;;;1.40;;
17714;SDS011;8977;50.902;4.314;2023-08-06T07:36:25;8.65;;;1.77;;
17714;SDS011;8977;50.902;4.314;2023-08-06T07:38:53;5.27;;;1.43;;
17714;SDS011;8977;50.902;4.314;2023-08-06T07:41:22;8.38;;;1.73;;
17714;SDS011;8977;50.902;4.314;2023-08-06T07:43:49;7.23;;;1.47;;
17714;SDS011;8977;50.902;4.314;2023-08-06T07:46:16;6.03;;;1.58;;
17714;SDS011;8977;50.902;4.314;2023-08-06T07:48:43;6.78;;;1.70;;
17714;SDS011;8977;50.902;4.314;2023-08-06T07:51:10;6.23;;;1.60;;
17714;SDS011;8977;50.902;4.314;2023-08-06T07:53:38;7.67;;;1.90;;
17714;SDS011;8977;50.902;4.314;2023-08-06T07:56:06;4.78;;;1.30;;
17714;SDS011;8977;50.902;4.314;2023-08-06T07:58:33;11.50;;;1.88;;
17714;SDS011;8977;50.902;4.314;2023-08-06T08:01:00;5.95;;;1.48;;
17714;SDS011;8977;50.902;4.314;2023-08-06T08:03:27;6.68;;;1.85;;
17714;SDS011;8977;50.902;4.314;2023-08-06T08:05:54;8.35;;;1.70;;
17714;SDS011;8977;50.902;4.314;2023-08-06T08:08:23;7.00;;;1.80;;
17714;SDS011;8977;50.902;4.314;2023-08-06T08:10:50;4.60;;;1.20;;
17714;SDS011;8977;50.902;4.314;2023-08-06T08:13:19;6.43;;;1.63;;
17714;SDS011;8977;50.902;4.314;2023-08-06T08:15:46;5.35;;;1.60;;
17714;SDS011;8977;50.902;4.314;2023-08-06T08:18:13;2.75;;;1.42;;
17714;SDS011;8977;50.902;4.314;2023-08-06T08:20:39;4.93;;;1.35;;
17714;SDS011;8977;50.902;4.314;2023-08-06T08:23:07;4.18;;;1.48;;
17714;SDS011;8977;50.902;4.314;2023-08-06T08:25:34;5.05;;;1.75;;
17714;SDS011;8977;50.902;4.314;2023-08-06T08:28:00;5.30;;;1.40;;
17714;SDS011;8977;50.902;4.314;2023-08-06T08:30:29;5.57;;;1.60;;
17714;SDS011;8977;50.902;4.314;2023-08-06T08:32:56;2.92;;;1.50;;
17714;SDS011;8977;50.902;4.314;2023-08-06T08:35:23;5.07;;;1.63;;
17714;SDS011;8977;50.902;4.314;2023-08-06T08:37:50;5.65;;;1.58;;
17714;SDS011;8977;50.902;4.314;2023-08-06T08:40:17;5.50;;;1.20;;
17714;SDS011;8977;50.902;4.314;2023-08-06T08:42:44;6.13;;;1.77;;
17714;SDS011;8977;50.902;4.314;2023-08-06T08:45:12;4.43;;;2.08;;
17714;SDS011;8977;50.902;4.314;2023-08-06T08:47:42;5.60;;;1.52;;
17714;SDS011;8977;50.902;4.314;2023-08-06T08:50:11;6.28;;;1.88;;
17714;SDS011;8977;50.902;4.314;2023-08-06T08:52:39;7.40;;;1.92;;
17714;SDS011;8977;50.902;4.314;2023-08-06T08:55:07;6.43;;;1.60;;
17714;SDS011;8977;50.902;4.314;2023-08-06T08:57:34;4.97;;;1.88;;
17714;SDS011;8977;50.902;4.314;2023-08-06T09:00:03;5.10;;;1.60;;
17714;SDS011;8977;50.902;4.314;2023-08-06T09:02:32;6.10;;;1.42;;
17714;SDS011;8977;50.902;4.314;2023-08-06T09:05:01;6.68;;;1.95;;
17714;SDS011;8977;50.902;4.314;2023-08-06T09:07:32;7.57;;;1.92;;
17714;SDS011;8977;50.902;4.314;2023-08-06T09:10:05;5.38;;;1.50;;
17714;SDS011;8977;50.902;4.314;2023-08-06T09:12:35;6.65;;;2.10;;
17714;SDS011;8977;50.902;4.314;2023-08-06T09:15:02;8.57;;;2.22;;
17714;SDS011;8977;50.902;4.314;2023-08-06T09:17:29;6.70;;;1.58;;
17714;SDS011;8977;50.902;4.314;2023-08-06T09:19:56;5.68;;;1.77;;
17714;SDS011;8977;50.902;4.314;2023-08-06T09:22:24;7.70;;;1.65;;
17714;SDS011;8977;50.902;4.314;2023-08-06T09:24:59;5.40;;;1.48;;
17714;SDS011;8977;50.902;4.314;2023-08-06T09:27:26;4.63;;;1.80;;
17714;SDS011;8977;50.902;4.314;2023-08-06T09:29:53;5.20;;;2.00;;
17714;SDS011;8977;50.902;4.314;2023-08-06T09:32:20;6.65;;;1.88;;
17714;SDS011;8977;50.902;4.314;2023-08-06T09:34:47;8.00;;;1.90;;
17714;SDS011;8977;50.902;4.314;2023-08-06T09:37:22;4.93;;;1.92;;
17714;SDS011;8977;50.902;4.314;2023-08-06T09:39:50;5.68;;;1.70;;
17714;SDS011;8977;50.902;4.314;2023-08-06T09:42:19;8.60;;;2.05;;
17714;SDS011;8977;50.902;4.314;2023-08-06T09:44:45;6.90;;;2.20;;
17714;SDS011;8977;50.902;4.314;2023-08-06T09:47:13;4.20;;;1.70;;
17714;SDS011;8977;50.902;4.314;2023-08-06T09:49:43;3.75;;;1.60;;
17714;SDS011;8977;50.902;4.314;2023-08-06T09:52:11;6.97;;;1.75;;
17714;SDS011;8977;50.902;4.314;2023-08-06T09:54:40;10.02;;;2.17;;
17714;SDS011;8977;50.902;4.314;2023-08-06T09:57:11;10.32;;;2.88;;
17714;SDS011;8977;50.902;4.314;2023-08-06T09:59:38;8.55;;;1.95;;
17714;SDS011;8977;50.902;4.314;2023-08-06T10:02:10;7.30;;;1.75;;
17714;SDS011;8977;50.902;4.314;2023-08-06T10:04:39;6.18;;;1.77;;
17714;SDS011;8977;50.902;4.314;2023-08-06T10:07:06;7.13;;;1.90;;
17714;SDS011;8977;50.902;4.314;2023-08-06T10:09:33;6.07;;;1.60;;
17714;SDS011;8977;50.902;4.314;2023-08-06T10:12:00;6.80;;;2.03;;
17714;SDS011;8977;50.902;4.314;2023-08-06T10:14:30;4.40;;;1.33;;
17714;SDS011;8977;50.902;4.314;2023-08-06T10:17:02;6.05;;;2.00;;
17714;SDS011;8977;50.902;4.314;2023-08-06T10:19:30;3.45;;;1.33;;
17714;SDS011;8977;50.902;4.314;2023-08-06T10:22:13;5.82;;;1.60;;
17714;SDS011;8977;50.902;4.314;2023-08-06T10:24:46;7.60;;;1.85;;
17714;SDS011;8977;50.902;4.314;2023-08-06T10:27:19;6.15;;;1.92;;
17714;SDS011;8977;50.902;4.314;2023-08-06T10:29:56;4.07;;;1.42;;
17714;SDS011;8977;50.902;4.314;2023-08-06T10:32:49;4.47;;;1.40;;
17714;SDS011;8977;50.902;4.314;2023-08-06T10:35:29;5.43;;;1.40;;
17714;SDS011;8977;50.902;4.314;2023-08-06T10:37:59;7.57;;;1.57;;
17714;SDS011;8977;50.902;4.314;2023-08-06T10:40:29;3.63;;;1.40;;
17714;SDS011;8977;50.902;4.314;2023-08-06T10:42:58;5.43;;;1.67;;
17714;SDS011;8977;50.902;4.314;2023-08-06T10:45:27;4.30;;;1.70;;
17714;SDS011;8977;50.902;4.314;2023-08-06T10:47:55;5.23;;;1.47;;
17714;SDS011;8977;50.902;4.314;2023-08-06T10:50:23;5.20;;;1.83;;
17714;SDS011;8977;50.902;4.314;2023-08-06T10:52:51;7.40;;;2.17;;
17714;SDS011;8977;50.902;4.314;2023-08-06T10:55:24;5.63;;;2.00;;
17714;SDS011;8977;50.902;4.314;2023-08-06T10:57:53;5.43;;;1.77;;
17714;SDS011;8977;50.902;4.314;2023-08-06T11:00:21;5.90;;;2.00;;
17714;SDS011;8977;50.902;4.314;2023-08-06T11:02:51;6.67;;;2.10;;
17714;SDS011;8977;50.902;4.314;2023-08-06T11:05:19;7.53;;;2.23;;
17714;SDS011;8977;50.902;4.314;2023-08-06T11:07:46;7.70;;;2.20;;
17714;SDS011;8977;50.902;4.314;2023-08-06T11:10:14;4.60;;;1.90;;
17714;SDS011;8977;50.902;4.314;2023-08-06T11:12:41;9.10;;;1.80;;
17714;SDS011;8977;50.902;4.314;2023-08-06T11:15:09;8.10;;;2.15;;
17714;SDS011;8977;50.902;4.314;2023-08-06T11:17:37;3.92;;;1.58;;
17714;SDS011;8977;50.902;4.314;2023-08-06T11:20:08;10.02;;;2.17;;
17714;SDS011;8977;50.902;4.314;2023-08-06T11:22:36;7.85;;;2.00;;
17714;SDS011;8977;50.902;4.314;2023-08-06T11:25:04;6.45;;;1.80;;
17714;SDS011;8977;50.902;4.314;2023-08-06T11:27:33;5.40;;;1.67;;
17714;SDS011;8977;50.902;4.314;2023-08-06T11:30:00;8.20;;;2.43;;
17714;SDS011;8977;50.902;4.314;2023-08-06T11:32:27;3.93;;;1.67;;
17714;SDS011;8977;50.902;4.314;2023-08-06T11:34:54;5.05;;;1.83;;
17714;SDS011;8977;50.902;4.314;2023-08-06T11:37:23;6.70;;;1.97;;
17714;SDS011;8977;50.902;4.314;2023-08-06T11:39:51;5.20;;;1.80;;
17714;SDS011;8977;50.902;4.314;2023-08-06T11:42:18;3.63;;;1.20;;
17714;SDS011;8977;50.902;4.314;2023-08-06T11:44:45;5.73;;;1.50;;
17714;SDS011;8977;50.902;4.314;2023-08-06T11:47:14;3.43;;;1.07;;
17714;SDS011;8977;50.902;4.314;2023-08-06T11:49:42;4.67;;;1.57;;
17714;SDS011;8977;50.902;4.314;2023-08-06T11:52:15;3.20;;;1.27;;
17714;SDS011;8977;50.902;4.314;2023-08-06T11:54:46;6.40;;;1.33;;
17714;SDS011;8977;50.902;4.314;2023-08-06T11:57:15;5.63;;;1.30;;
17714;SDS011;8977;50.902;4.314;2023-08-06T11:59:43;5.47;;;1.60;;
17714;SDS011;8977;50.902;4.314;2023-08-06T12:02:09;5.40;;;1.40;;
17714;SDS011;8977;50.902;4.314;2023-08-06T12:07:26;5.87;;;1.87;;
17714;SDS011;8977;50.902;4.314;2023-08-06T12:09:56;4.03;;;1.40;;
17714;SDS011;8977;50.902;4.314;2023-08-06T12:12:23;8.48;;;2.40;;
17714;SDS011;8977;50.902;4.314;2023-08-06T12:14:50;4.37;;;1.53;;
17714;SDS011;8977;50.902;4.314;2023-08-06T12:17:17;7.70;;;1.73;;
17714;SDS011;8977;50.902;4.314;2023-08-06T12:19:44;6.88;;;2.00;;
17714;SDS011;8977;50.902;4.314;2023-08-06T12:22:12;7.87;;;2.30;;
17714;SDS011;8977;50.902;4.314;2023-08-06T12:24:40;7.27;;;2.27;;
17714;SDS011;8977;50.902;4.314;2023-08-06T12:27:08;6.40;;;1.97;;
17714;SDS011;8977;50.902;4.314;2023-08-06T12:32:03;10.15;;;2.20;;
17714;SDS011;8977;50.902;4.314;2023-08-06T12:34:31;6.20;;;1.83;;
17714;SDS011;8977;50.902;4.314;2023-08-06T12:36:58;5.93;;;1.80;;
17714;SDS011;8977;50.902;4.314;2023-08-06T12:39:25;5.88;;;1.60;;
17714;SDS011;8977;50.902;4.314;2023-08-06T12:41:54;7.18;;;2.78;;
17714;SDS011;8977;50.902;4.314;2023-08-06T12:44:24;4.53;;;1.63;;
17714;SDS011;8977;50.902;4.314;2023-08-06T12:46:51;5.30;;;1.85;;
17714;SDS011;8977;50.902;4.314;2023-08-06T12:49:18;4.93;;;1.65;;
17714;SDS011;8977;50.902;4.314;2023-08-06T12:51:46;5.50;;;1.50;;
17714;SDS011;8977;50.902;4.314;2023-08-06T12:54:13;5.68;;;2.05;;
17714;SDS011;8977;50.902;4.314;2023-08-06T12:56:40;4.07;;;1.55;;
17714;SDS011;8977;50.902;4.314;2023-08-06T12:59:07;6.63;;;1.90;;
17714;SDS011;8977;50.902;4.314;2023-08-06T13:01:36;5.05;;;1.80;;
17714;SDS011;8977;50.902;4.314;2023-08-06T13:04:04;8.90;;;1.90;;
17714;SDS011;8977;50.902;4.314;2023-08-06T13:06:31;9.75;;;1.60;;
17714;SDS011;8977;50.902;4.314;2023-08-06T13:09:01;5.22;;;1.85;;
17714;SDS011;8977;50.902;4.314;2023-08-06T13:11:28;4.03;;;1.42;;
17714;SDS011;8977;50.902;4.314;2023-08-06T13:13:56;5.00;;;1.90;;
17714;SDS011;8977;50.902;4.314;2023-08-06T13:16:25;6.45;;;2.03;;
17714;SDS011;8977;50.902;4.314;2023-08-06T13:18:55;7.75;;;2.35;;
17714;SDS011;8977;50.902;4.314;2023-08-06T13:21:22;8.93;;;2.35;;
17714;SDS011;8977;50.902;4.314;2023-08-06T13:23:49;8.40;;;1.90;;
17714;SDS011;8977;50.902;4.314;2023-08-06T13:26:17;6.78;;;1.92;;
17714;SDS011;8977;50.902;4.314;2023-08-06T13:28:44;8.80;;;2.20;;
17714;SDS011;8977;50.902;4.314;2023-08-06T13:31:10;6.78;;;1.73;;
17714;SDS011;8977;50.902;4.314;2023-08-06T13:33:37;7.30;;;2.30;;
17714;SDS011;8977;50.902;4.314;2023-08-06T13:36:06;7.60;;;1.90;;
17714;SDS011;8977;50.902;4.314;2023-08-06T13:38:33;6.95;;;1.90;;
17714;SDS011;8977;50.902;4.314;2023-08-06T13:41:01;3.85;;;1.38;;
17714;SDS011;8977;50.902;4.314;2023-08-06T13:43:28;5.23;;;1.60;;
17714;SDS011;8977;50.902;4.314;2023-08-06T13:45:55;7.50;;;1.70;;
17714;SDS011;8977;50.902;4.314;2023-08-06T13:48:22;3.97;;;1.37;;
17714;SDS011;8977;50.902;4.314;2023-08-06T13:50:49;3.80;;;1.60;;
17714;SDS011;8977;50.902;4.314;2023-08-06T13:53:17;3.75;;;1.50;;
17714;SDS011;8977;50.902;4.314;2023-08-06T13:55:44;5.87;;;1.57;;
17714;SDS011;8977;50.902;4.314;2023-08-06T13:58:11;4.00;;;1.47;;
17714;SDS011;8977;50.902;4.314;2023-08-06T14:00:38;5.32;;;1.42;;
17714;SDS011;8977;50.902;4.314;2023-08-06T14:03:05;4.00;;;1.48;;
17714;SDS011;8977;50.902;4.314;2023-08-06T14:05:33;4.97;;;1.67;;
17714;SDS011;8977;50.902;4.314;2023-08-06T14:08:00;3.60;;;1.55;;
17714;SDS011;8977;50.902;4.314;2023-08-06T14:10:28;4.93;;;1.57;;
17714;SDS011;8977;50.902;4.314;2023-08-06T14:12:55;3.93;;;1.43;;
17714;SDS011;8977;50.902;4.314;2023-08-06T14:15:22;7.70;;;1.58;;
17714;SDS011;8977;50.902;4.314;2023-08-06T14:17:49;5.88;;;1.67;;
17714;SDS011;8977;50.902;4.314;2023-08-06T14:20:16;9.13;;;2.67;;
17714;SDS011;8977;50.902;4.314;2023-08-06T14:22:43;6.50;;;1.70;;
17714;SDS011;8977;50.902;4.314;2023-08-06T14:25:10;4.35;;;1.42;;
17714;SDS011;8977;50.902;4.314;2023-08-06T14:27:39;4.57;;;1.70;;
17714;SDS011;8977;50.902;4.314;2023-08-06T14:30:06;6.80;;;1.63;;
17714;SDS011;8977;50.902;4.314;2023-08-06T14:32:34;8.07;;;1.80;;
17714;SDS011;8977;50.902;4.314;2023-08-06T14:35:01;4.80;;;1.50;;
17714;SDS011;8977;50.902;4.314;2023-08-06T14:37:28;9.43;;;2.00;;
17714;SDS011;8977;50.902;4.314;2023-08-06T14:39:55;7.30;;;2.00;;
17714;SDS011;8977;50.902;4.314;2023-08-06T14:42:22;6.57;;;2.20;;
17714;SDS011;8977;50.902;4.314;2023-08-06T14:44:50;7.40;;;1.93;;
17714;SDS011;8977;50.902;4.314;2023-08-06T14:47:17;6.87;;;2.00;;
17714;SDS011;8977;50.902;4.314;2023-08-06T14:49:44;4.33;;;1.63;;
17714;SDS011;8977;50.902;4.314;2023-08-06T14:52:13;5.97;;;1.83;;
17714;SDS011;8977;50.902;4.314;2023-08-06T14:54:40;6.43;;;2.10;;
17714;SDS011;8977;50.902;4.314;2023-08-06T14:57:07;7.70;;;2.00;;
17714;SDS011;8977;50.902;4.314;2023-08-06T14:59:35;6.00;;;2.13;;
17714;SDS011;8977;50.902;4.314;2023-08-06T15:02:03;7.03;;;2.15;;
17714;SDS011;8977;50.902;4.314;2023-08-06T15:04:30;6.30;;;1.80;;
17714;SDS011;8977;50.902;4.314;2023-08-06T15:06:57;7.60;;;2.07;;
17714;SDS011;8977;50.902;4.314;2023-08-06T15:09:25;6.67;;;1.93;;